sensor_id;sensor_type;location;lat;lon;timestamp;pressure;altitude;pressure_sealevel;temperature;humidity
52361;BME280;38294;42.966;1.608;2022-11-20T03:24:04;97369.31;;;4.98;94.58
52361;BME280;38294;42.966;1.608;2022-11-20T03:26:29;97364.38;;;5.09;94.73
52361;BME280;38294;42.966;1.608;2022-11-20T03:29:00;97375.69;;;5.28;92.59
52361;BME280;38294;42.966;1.608;2022-11-20T03:31:32;97364.69;;;5.33;91.70
52361;BME280;38294;42.966;1.608;2022-11-20T03:33:58;97360.84;;;5.08;91.90
52361;BME280;38294;42.966;1.608;2022-11-20T03:36:24;97364.19;;;5.14;92.74
52361;BME280;38294;42.966;1.608;2022-11-20T03:38:50;97361.94;;;5.42;90.98
52361;BME280;38294;42.966;1.608;2022-11-20T03:41:24;97368.13;;;5.59;89.71
52361;BME280;38294;42.966;1.608;2022-11-20T03:43:53;97372.47;;;5.52;87.82
52361;BME280;38294;42.966;1.608;2022-11-20T03:46:19;97369.47;;;5.27;87.27
52361;BME280;38294;42.966;1.608;2022-11-20T03:48:45;97363.38;;;5.30;88.33
52361;BME280;38294;42.966;1.608;2022-11-20T03:53:45;97359.56;;;5.23;87.89
52361;BME280;38294;42.966;1.608;2022-11-20T03:56:12;97363.56;;;5.08;87.01
52361;BME280;38294;42.966;1.608;2022-11-20T03:58:40;97359.88;;;5.04;87.77
52361;BME280;38294;42.966;1.608;2022-11-20T04:01:07;97366.75;;;5.27;87.77
52361;BME280;38294;42.966;1.608;2022-11-20T04:03:34;97361.97;;;5.24;85.23
52361;BME280;38294;42.966;1.608;2022-11-20T04:06:06;97364.19;;;5.14;86.75
52361;BME280;38294;42.966;1.608;2022-11-20T04:08:31;97358.16;;;5.00;87.01
52361;BME280;38294;42.966;1.608;2022-11-20T04:13:35;97354.31;;;5.09;86.53
52361;BME280;38294;42.966;1.608;2022-11-20T04:16:01;97353.19;;;5.19;88.00
52361;BME280;38294;42.966;1.608;2022-11-20T04:18:26;97359.25;;;5.16;88.00
52361;BME280;38294;42.966;1.608;2022-11-20T04:20:52;97360.84;;;5.08;85.34
52361;BME280;38294;42.966;1.608;2022-11-20T04:23:17;97369.31;;;5.15;84.78
52361;BME280;38294;42.966;1.608;2022-11-20T04:25:43;97350.63;;;5.05;86.01
52361;BME280;38294;42.966;1.608;2022-11-20T04:28:09;97351.91;;;5.08;85.67
52361;BME280;38294;42.966;1.608;2022-11-20T04:30:34;97351.75;;;4.87;86.17
52361;BME280;38294;42.966;1.608;2022-11-20T04:33:00;97352.72;;;5.00;86.87
52361;BME280;38294;42.966;1.608;2022-11-20T04:35:25;97345.84;;;5.02;86.53
52361;BME280;38294;42.966;1.608;2022-11-20T04:37:51;97354.94;;;5.06;85.30
52361;BME280;38294;42.966;1.608;2022-11-20T04:40:17;97346.03;;;4.71;86.48
52361;BME280;38294;42.966;1.608;2022-11-20T04:42:43;97348.88;;;4.58;87.29
52361;BME280;38294;42.966;1.608;2022-11-20T04:45:08;97349.84;;;4.62;85.77
52361;BME280;38294;42.966;1.608;2022-11-20T04:47:34;97353.66;;;4.61;86.55
52361;BME280;38294;42.966;1.608;2022-11-20T04:49:59;97347.94;;;4.71;86.25
52361;BME280;38294;42.966;1.608;2022-11-20T04:52:25;97345.53;;;4.78;86.55
52361;BME280;38294;42.966;1.608;2022-11-20T04:54:50;97345.22;;;4.80;84.69
52361;BME280;38294;42.966;1.608;2022-11-20T04:57:18;97353.50;;;4.83;85.30
52361;BME280;38294;42.966;1.608;2022-11-20T04:59:44;97349.66;;;4.67;85.06
52361;BME280;38294;42.966;1.608;2022-11-20T05:02:10;97349.97;;;4.48;84.81
52361;BME280;38294;42.966;1.608;2022-11-20T05:04:36;97355.06;;;4.33;85.29
52361;BME280;38294;42.966;1.608;2022-11-20T05:07:01;97352.63;;;4.22;86.74
52361;BME280;38294;42.966;1.608;2022-11-20T05:09:27;97347.56;;;4.30;86.01
52361;BME280;38294;42.966;1.608;2022-11-20T05:11:52;97352.41;;;4.02;86.47
52361;BME280;38294;42.966;1.608;2022-11-20T05:14:18;97345.47;;;4.35;86.17
52361;BME280;38294;42.966;1.608;2022-11-20T05:16:43;97354.59;;;4.48;87.60
52361;BME280;38294;42.966;1.608;2022-11-20T05:19:09;97351.75;;;4.61;85.93
52361;BME280;38294;42.966;1.608;2022-11-20T05:21:34;97346.13;;;4.41;85.49
52361;BME280;38294;42.966;1.608;2022-11-20T05:24:00;97347.91;;;4.54;85.16
52361;BME280;38294;42.966;1.608;2022-11-20T05:26:25;97342.81;;;4.69;85.84
52361;BME280;38294;42.966;1.608;2022-11-20T05:28:51;97337.06;;;4.62;86.50
52361;BME280;38294;42.966;1.608;2022-11-20T05:31:19;97336.59;;;3.95;85.89
52361;BME280;38294;42.966;1.608;2022-11-20T05:33:45;97331.44;;;3.85;88.54
52361;BME280;38294;42.966;1.608;2022-11-20T05:36:12;97330.41;;;4.03;86.97
52361;BME280;38294;42.966;1.608;2022-11-20T05:38:39;97331.69;;;4.06;86.28
52361;BME280;38294;42.966;1.608;2022-11-20T05:41:15;97327.69;;;4.03;86.68
52361;BME280;38294;42.966;1.608;2022-11-20T05:43:42;97329.50;;;4.34;86.60
52361;BME280;38294;42.966;1.608;2022-11-20T05:46:11;97327.13;;;4.32;85.29
52361;BME280;38294;42.966;1.608;2022-11-20T05:48:39;97337.66;;;4.34;85.18
52361;BME280;38294;42.966;1.608;2022-11-20T05:51:07;97336.88;;;4.42;85.02
52361;BME280;38294;42.966;1.608;2022-11-20T05:53:34;97341.66;;;4.45;84.37
52361;BME280;38294;42.966;1.608;2022-11-20T05:56:08;97345.34;;;4.49;84.41
52361;BME280;38294;42.966;1.608;2022-11-20T05:58:35;97345.81;;;4.42;83.62
52361;BME280;38294;42.966;1.608;2022-11-20T06:01:20;97348.84;;;4.41;84.31
52361;BME280;38294;42.966;1.608;2022-11-20T06:03:46;97352.63;;;4.31;84.13
52361;BME280;38294;42.966;1.608;2022-11-20T06:06:14;97353.44;;;4.23;84.52
52361;BME280;38294;42.966;1.608;2022-11-20T06:08:40;97355.81;;;4.16;84.76
52361;BME280;38294;42.966;1.608;2022-11-20T06:11:07;97347.22;;;4.22;84.46
52361;BME280;38294;42.966;1.608;2022-11-20T06:13:34;97344.34;;;4.28;84.85
52361;BME280;38294;42.966;1.608;2022-11-20T06:16:00;97349.91;;;4.22;84.35
52361;BME280;38294;42.966;1.608;2022-11-20T06:18:27;97347.94;;;4.06;84.94
52361;BME280;38294;42.966;1.608;2022-11-20T06:21:03;97347.59;;;3.90;84.74
52361;BME280;38294;42.966;1.608;2022-11-20T06:23:31;97348.88;;;3.62;85.84
52361;BME280;38294;42.966;1.608;2022-11-20T06:26:02;97336.50;;;3.78;85.77
52361;BME280;38294;42.966;1.608;2022-11-20T06:28:28;97336.31;;;3.66;85.54
52361;BME280;38294;42.966;1.608;2022-11-20T06:30:53;97332.50;;;3.67;87.23
52361;BME280;38294;42.966;1.608;2022-11-20T06:33:19;97329.88;;;3.84;86.52
52361;BME280;38294;42.966;1.608;2022-11-20T06:35:44;97343.06;;;4.16;85.50
52361;BME280;38294;42.966;1.608;2022-11-20T06:38:10;97334.41;;;4.14;85.24
52361;BME280;38294;42.966;1.608;2022-11-20T06:40:35;97345.31;;;4.32;84.37
52361;BME280;38294;42.966;1.608;2022-11-20T06:43:01;97350.84;;;4.18;83.89
52361;BME280;38294;42.966;1.608;2022-11-20T06:45:26;97356.06;;;3.97;84.34
52361;BME280;38294;42.966;1.608;2022-11-20T06:47:52;97356.59;;;4.16;83.59
52361;BME280;38294;42.966;1.608;2022-11-20T06:50:17;97356.59;;;4.16;83.47
52361;BME280;38294;42.966;1.608;2022-11-20T06:52:43;97354.84;;;4.20;83.62
52361;BME280;38294;42.966;1.608;2022-11-20T06:55:08;97354.06;;;4.29;83.53
52361;BME280;38294;42.966;1.608;2022-11-20T06:57:34;97352.81;;;4.35;83.02
52361;BME280;38294;42.966;1.608;2022-11-20T06:59:59;97358.88;;;4.40;83.13
52361;BME280;38294;42.966;1.608;2022-11-20T07:02:25;97364.00;;;4.42;83.54
52361;BME280;38294;42.966;1.608;2022-11-20T07:04:50;97356.44;;;4.13;83.14
52361;BME280;38294;42.966;1.608;2022-11-20T07:07:16;97352.72;;;4.00;84.22
52361;BME280;38294;42.966;1.608;2022-11-20T07:09:41;97347.13;;;3.97;83.82
52361;BME280;38294;42.966;1.608;2022-11-20T07:12:07;97355.53;;;3.87;83.59
52361;BME280;38294;42.966;1.608;2022-11-20T07:14:33;97356.53;;;3.99;84.85
52361;BME280;38294;42.966;1.608;2022-11-20T07:16:58;97365.66;;;4.03;84.15
52361;BME280;38294;42.966;1.608;2022-11-20T07:19:24;97357.63;;;3.90;84.90
52361;BME280;38294;42.966;1.608;2022-11-20T07:21:49;97376.69;;;4.15;83.30
52361;BME280;38294;42.966;1.608;2022-11-20T07:24:15;97382.94;;;4.24;83.33
52361;BME280;38294;42.966;1.608;2022-11-20T07:26:40;97375.25;;;4.27;83.41
52361;BME280;38294;42.966;1.608;2022-11-20T07:29:06;97374.50;;;4.35;82.83
52361;BME280;38294;42.966;1.608;2022-11-20T07:31:31;97373.88;;;4.38;82.64
52361;BME280;38294;42.966;1.608;2022-11-20T07:33:57;97378.50;;;4.37;81.88
52361;BME280;38294;42.966;1.608;2022-11-20T07:36:22;97379.19;;;4.51;82.00
52361;BME280;38294;42.966;1.608;2022-11-20T07:38:48;97374.56;;;4.52;82.06
52361;BME280;38294;42.966;1.608;2022-11-20T07:41:14;97372.47;;;4.57;82.38
52361;BME280;38294;42.966;1.608;2022-11-20T07:43:40;97371.06;;;4.68;81.87
52361;BME280;38294;42.966;1.608;2022-11-20T07:46:05;97381.25;;;4.63;80.89
52361;BME280;38294;42.966;1.608;2022-11-20T07:48:31;97371.53;;;4.70;81.24
52361;BME280;38294;42.966;1.608;2022-11-20T07:50:56;97368.22;;;4.99;80.29
52361;BME280;38294;42.966;1.608;2022-11-20T07:53:23;97365.63;;;5.11;80.16
52361;BME280;38294;42.966;1.608;2022-11-20T07:55:49;97365.44;;;5.34;78.52
52361;BME280;38294;42.966;1.608;2022-11-20T07:58:15;97370.25;;;5.28;78.44
52361;BME280;38294;42.966;1.608;2022-11-20T08:00:41;97374.41;;;5.34;78.38
52361;BME280;38294;42.966;1.608;2022-11-20T08:03:07;97372.31;;;5.40;78.10
52361;BME280;38294;42.966;1.608;2022-11-20T08:05:32;97370.44;;;5.23;78.39
52361;BME280;38294;42.966;1.608;2022-11-20T08:07:58;97361.22;;;5.88;76.78
52361;BME280;38294;42.966;1.608;2022-11-20T08:10:24;97361.41;;;5.57;76.96
52361;BME280;38294;42.966;1.608;2022-11-20T08:12:51;97361.78;;;6.02;76.74
52361;BME280;38294;42.966;1.608;2022-11-20T08:15:37;97366.47;;;5.84;76.05
52361;BME280;38294;42.966;1.608;2022-11-20T08:18:10;97360.25;;;6.21;75.41
52361;BME280;38294;42.966;1.608;2022-11-20T08:20:37;97365.91;;;6.46;74.61
52361;BME280;38294;42.966;1.608;2022-11-20T08:23:04;97362.25;;;6.42;74.14
52361;BME280;38294;42.966;1.608;2022-11-20T08:25:37;97354.53;;;6.44;74.49
52361;BME280;38294;42.966;1.608;2022-11-20T08:28:08;97367.09;;;7.07;72.76
52361;BME280;38294;42.966;1.608;2022-11-20T08:30:35;97362.75;;;6.85;72.80
52361;BME280;38294;42.966;1.608;2022-11-20T08:33:06;97372.31;;;7.65;69.92
52361;BME280;38294;42.966;1.608;2022-11-20T08:35:36;97363.22;;;7.73;70.11
52361;BME280;38294;42.966;1.608;2022-11-20T08:38:04;97363.91;;;7.70;70.20
52361;BME280;38294;42.966;1.608;2022-11-20T08:40:30;97361.59;;;7.60;70.90
52361;BME280;38294;42.966;1.608;2022-11-20T08:42:55;97365.81;;;7.58;70.75
52361;BME280;38294;42.966;1.608;2022-11-20T08:45:21;97367.81;;;7.49;71.19
52361;BME280;38294;42.966;1.608;2022-11-20T08:47:47;97377.50;;;7.58;70.92
52361;BME280;38294;42.966;1.608;2022-11-20T08:50:14;97382.34;;;7.85;70.55
52361;BME280;38294;42.966;1.608;2022-11-20T08:52:40;97387.91;;;7.77;69.83
52361;BME280;38294;42.966;1.608;2022-11-20T08:55:06;97387.91;;;7.77;70.14
52361;BME280;38294;42.966;1.608;2022-11-20T08:57:33;97381.66;;;8.33;68.62
52361;BME280;38294;42.966;1.608;2022-11-20T08:59:58;97396.91;;;8.59;67.19
52361;BME280;38294;42.966;1.608;2022-11-20T09:02:24;97403.91;;;8.96;66.54
52361;BME280;38294;42.966;1.608;2022-11-20T09:04:50;97408.78;;;9.03;67.79
52361;BME280;38294;42.966;1.608;2022-11-20T09:07:15;97405.16;;;9.11;66.74
52361;BME280;38294;42.966;1.608;2022-11-20T09:09:41;97397.34;;;9.25;65.74
52361;BME280;38294;42.966;1.608;2022-11-20T09:12:06;97402.38;;;9.23;64.68
52361;BME280;38294;42.966;1.608;2022-11-20T09:14:32;97400.28;;;9.60;64.15
52361;BME280;38294;42.966;1.608;2022-11-20T09:16:59;97407.56;;;9.00;66.49
52361;BME280;38294;42.966;1.608;2022-11-20T09:19:25;97402.78;;;8.73;68.04
52361;BME280;38294;42.966;1.608;2022-11-20T09:21:51;97408.38;;;8.76;68.20
52361;BME280;38294;42.966;1.608;2022-11-20T09:24:17;97411.09;;;8.76;68.44
52361;BME280;38294;42.966;1.608;2022-11-20T09:26:43;97422.63;;;10.17;64.64
52361;BME280;38294;42.966;1.608;2022-11-20T09:29:08;97425.34;;;9.89;64.04
52361;BME280;38294;42.966;1.608;2022-11-20T09:31:34;97431.31;;;10.07;62.79
52361;BME280;38294;42.966;1.608;2022-11-20T09:33:59;97422.63;;;10.33;62.49
52361;BME280;38294;42.966;1.608;2022-11-20T09:36:25;97416.81;;;10.66;59.75
52361;BME280;38294;42.966;1.608;2022-11-20T09:38:51;97426.75;;;10.89;58.28
52361;BME280;38294;42.966;1.608;2022-11-20T09:44:40;97442.50;;;11.27;56.69
52361;BME280;38294;42.966;1.608;2022-11-20T09:47:20;97440.00;;;10.87;57.22
52361;BME280;38294;42.966;1.608;2022-11-20T09:52:46;97450.53;;;10.54;56.41
52361;BME280;38294;42.966;1.608;2022-11-20T09:55:15;97461.75;;;10.33;58.56
52361;BME280;38294;42.966;1.608;2022-11-20T09:57:44;97460.59;;;10.34;58.03
52361;BME280;38294;42.966;1.608;2022-11-20T10:00:14;97452.84;;;10.52;57.93
52361;BME280;38294;42.966;1.608;2022-11-20T10:05:39;97437.22;;;10.52;57.69
52361;BME280;38294;42.966;1.608;2022-11-20T10:08:17;97443.75;;;10.48;57.82
52361;BME280;38294;42.966;1.608;2022-11-20T10:10:52;97430.44;;;10.97;57.56
52361;BME280;38294;42.966;1.608;2022-11-20T10:19:26;97389.59;;;11.27;55.17
52361;BME280;38294;42.966;1.608;2022-11-20T10:25:00;97376.47;;;11.74;54.40
52361;BME280;38294;42.966;1.608;2022-11-20T10:27:48;97375.81;;;11.81;54.00
52361;BME280;38294;42.966;1.608;2022-11-20T10:30:16;97373.38;;;12.18;52.44
52361;BME280;38294;42.966;1.608;2022-11-20T10:32:46;97368.78;;;12.02;52.59
52361;BME280;38294;42.966;1.608;2022-11-20T10:37:44;97356.69;;;12.52;51.28
52361;BME280;38294;42.966;1.608;2022-11-20T10:40:34;97358.47;;;12.41;51.72
52361;BME280;38294;42.966;1.608;2022-11-20T10:43:24;97348.56;;;12.59;50.78
52361;BME280;38294;42.966;1.608;2022-11-20T10:45:58;97351.41;;;12.40;50.55
52361;BME280;38294;42.966;1.608;2022-11-20T10:48:27;97348.00;;;12.77;50.27
52361;BME280;38294;42.966;1.608;2022-11-20T11:00:11;97327.72;;;12.85;50.09
52361;BME280;38294;42.966;1.608;2022-11-20T11:02:19;97331.50;;;13.03;50.32
52361;BME280;38294;42.966;1.608;2022-11-20T11:04:53;97329.28;;;13.12;50.08
52361;BME280;38294;42.966;1.608;2022-11-20T11:07:32;97326.00;;;13.29;50.16
52361;BME280;38294;42.966;1.608;2022-11-20T11:10:00;97329.56;;;13.33;49.27
52361;BME280;38294;42.966;1.608;2022-11-20T11:12:28;97329.09;;;13.61;49.39
52361;BME280;38294;42.966;1.608;2022-11-20T11:14:55;97323.59;;;13.98;48.56
52361;BME280;38294;42.966;1.608;2022-11-20T11:17:32;97319.41;;;14.11;48.22
52361;BME280;38294;42.966;1.608;2022-11-20T11:22:53;97307.53;;;14.03;48.24
52361;BME280;38294;42.966;1.608;2022-11-20T11:25:24;97310.66;;;14.46;47.81
52361;BME280;38294;42.966;1.608;2022-11-20T11:27:52;97296.69;;;14.72;47.54
52361;BME280;38294;42.966;1.608;2022-11-20T11:30:20;97297.28;;;15.13;46.48
52361;BME280;38294;42.966;1.608;2022-11-20T11:32:46;97301.16;;;14.98;47.16
52361;BME280;38294;42.966;1.608;2022-11-20T11:35:25;97294.22;;;15.32;46.08
52361;BME280;38294;42.966;1.608;2022-11-20T11:38:03;97286.00;;;15.46;46.54
52361;BME280;38294;42.966;1.608;2022-11-20T11:40:32;97290.47;;;14.86;47.89
52361;BME280;38294;42.966;1.608;2022-11-20T11:43:01;97283.13;;;14.49;48.91
52361;BME280;38294;42.966;1.608;2022-11-20T11:45:27;97279.88;;;14.95;48.12
52361;BME280;38294;42.966;1.608;2022-11-20T11:47:55;97283.13;;;15.14;46.97
52361;BME280;38294;42.966;1.608;2022-11-20T11:50:26;97286.22;;;15.06;47.71
52361;BME280;38294;42.966;1.608;2022-11-20T11:55:56;97267.34;;;15.15;47.06
52361;BME280;38294;42.966;1.608;2022-11-20T12:03:46;97262.28;;;15.28;47.03
52361;BME280;38294;42.966;1.608;2022-11-20T12:06:17;97255.28;;;15.55;46.78
52361;BME280;38294;42.966;1.608;2022-11-20T12:08:53;97253.19;;;15.20;46.60
52361;BME280;38294;42.966;1.608;2022-11-20T12:11:36;97258.63;;;15.02;47.61
52361;BME280;38294;42.966;1.608;2022-11-20T12:16:35;97247.28;;;15.25;45.86
52361;BME280;38294;42.966;1.608;2022-11-20T12:19:01;97241.78;;;15.36;45.36
52361;BME280;38294;42.966;1.608;2022-11-20T12:21:50;97254.94;;;15.77;44.56
52361;BME280;38294;42.966;1.608;2022-11-20T12:27:27;97255.31;;;15.62;44.65
52361;BME280;38294;42.966;1.608;2022-11-20T12:47:35;97274.69;;;14.90;50.24
52361;BME280;38294;42.966;1.608;2022-11-20T12:50:15;97274.09;;;14.52;52.96
52361;BME280;38294;42.966;1.608;2022-11-20T12:55:21;97266.38;;;14.21;58.34
52361;BME280;38294;42.966;1.608;2022-11-20T12:58:17;97281.88;;;13.96;60.59
52361;BME280;38294;42.966;1.608;2022-11-20T13:01:15;97287.47;;;14.06;63.00
52361;BME280;38294;42.966;1.608;2022-11-20T13:07:13;97284.22;;;13.53;65.03
52361;BME280;38294;42.966;1.608;2022-11-20T13:09:44;97288.88;;;13.49;65.80
52361;BME280;38294;42.966;1.608;2022-11-20T13:17:24;97298.16;;;13.38;68.66
52361;BME280;38294;42.966;1.608;2022-11-20T13:19:52;97301.19;;;12.99;71.36
52361;BME280;38294;42.966;1.608;2022-11-20T13:22:41;97291.75;;;12.97;70.17
52361;BME280;38294;42.966;1.608;2022-11-20T13:25:21;97289.28;;;13.51;70.10
52361;BME280;38294;42.966;1.608;2022-11-20T13:27:48;97284.63;;;13.22;71.72
52361;BME280;38294;42.966;1.608;2022-11-20T13:30:17;97286.47;;;13.11;71.20
52361;BME280;38294;42.966;1.608;2022-11-20T13:32:49;97273.00;;;13.73;69.05
52361;BME280;38294;42.966;1.608;2022-11-20T13:35:25;97281.72;;;13.41;69.52
52361;BME280;38294;42.966;1.608;2022-11-20T13:38:04;97266.97;;;14.00;68.41
52361;BME280;38294;42.966;1.608;2022-11-20T13:40:31;97270.31;;;14.24;67.32
52361;BME280;38294;42.966;1.608;2022-11-20T13:46:09;97252.19;;;14.23;67.54
52361;BME280;38294;42.966;1.608;2022-11-20T13:48:46;97263.16;;;13.35;71.21
52361;BME280;38294;42.966;1.608;2022-11-20T13:51:34;97246.41;;;14.35;67.58
52361;BME280;38294;42.966;1.608;2022-11-20T14:02:35;97229.31;;;14.69;66.53
52361;BME280;38294;42.966;1.608;2022-11-20T14:05:02;97220.19;;;14.62;66.40
52361;BME280;38294;42.966;1.608;2022-11-20T14:07:37;97214.81;;;14.87;65.54
52361;BME280;38294;42.966;1.608;2022-11-20T14:10:05;97218.50;;;15.30;64.61
52361;BME280;38294;42.966;1.608;2022-11-20T14:12:33;97219.16;;;14.91;64.86
52361;BME280;38294;42.966;1.608;2022-11-20T14:14:59;97215.56;;;14.80;65.87
52361;BME280;38294;42.966;1.608;2022-11-20T14:19:55;97200.72;;;15.02;66.00
52361;BME280;38294;42.966;1.608;2022-11-20T14:22:25;97208.19;;;15.02;66.73
52361;BME280;38294;42.966;1.608;2022-11-20T14:27:40;97197.22;;;15.23;67.56
52361;BME280;38294;42.966;1.608;2022-11-20T14:30:13;97205.47;;;15.19;67.25
52361;BME280;38294;42.966;1.608;2022-11-20T14:32:41;97204.50;;;14.77;68.26
52361;BME280;38294;42.966;1.608;2022-11-20T14:35:09;97194.44;;;15.23;66.99
52361;BME280;38294;42.966;1.608;2022-11-20T14:37:38;97206.66;;;15.22;66.63
52361;BME280;38294;42.966;1.608;2022-11-20T14:42:47;97201.22;;;14.46;69.76
52361;BME280;38294;42.966;1.608;2022-11-20T14:45:12;97198.00;;;14.34;71.03
52361;BME280;38294;42.966;1.608;2022-11-20T14:47:39;97199.00;;;14.77;69.99
52361;BME280;38294;42.966;1.608;2022-11-20T14:50:13;97202.66;;;15.02;68.65
52361;BME280;38294;42.966;1.608;2022-11-20T14:52:50;97205.28;;;14.73;68.31
52361;BME280;38294;42.966;1.608;2022-11-20T14:55:26;97206.41;;;14.58;69.12
52361;BME280;38294;42.966;1.608;2022-11-20T14:57:56;97213.19;;;14.75;65.51
52361;BME280;38294;42.966;1.608;2022-11-20T15:00:23;97208.16;;;14.95;64.11
52361;BME280;38294;42.966;1.608;2022-11-20T15:02:50;97218.94;;;14.49;66.91
52361;BME280;38294;42.966;1.608;2022-11-20T15:05:18;97231.59;;;14.53;62.26
52361;BME280;38294;42.966;1.608;2022-11-20T15:07:47;97221.50;;;14.82;62.36
52361;BME280;38294;42.966;1.608;2022-11-20T15:10:23;97242.28;;;14.65;62.19
52361;BME280;38294;42.966;1.608;2022-11-20T15:12:53;97254.75;;;14.45;61.97
52361;BME280;38294;42.966;1.608;2022-11-20T15:18:05;97262.00;;;14.16;62.83
52361;BME280;38294;42.966;1.608;2022-11-20T15:20:35;97260.50;;;14.30;62.02
52361;BME280;38294;42.966;1.608;2022-11-20T15:23:01;97257.31;;;14.20;61.43
52361;BME280;38294;42.966;1.608;2022-11-20T15:25:27;97264.06;;;14.30;61.14
52361;BME280;38294;42.966;1.608;2022-11-20T15:27:56;97266.91;;;14.37;62.00
52361;BME280;38294;42.966;1.608;2022-11-20T15:30:22;97293.50;;;14.19;62.55
52361;BME280;38294;42.966;1.608;2022-11-20T15:32:48;97305.09;;;13.95;65.30
52361;BME280;38294;42.966;1.608;2022-11-20T15:35:14;97302.38;;;13.98;65.72
52361;BME280;38294;42.966;1.608;2022-11-20T15:37:41;97319.38;;;13.71;68.15
52361;BME280;38294;42.966;1.608;2022-11-20T15:40:08;97314.91;;;13.96;67.40
52361;BME280;38294;42.966;1.608;2022-11-20T15:42:34;97322.50;;;14.06;67.65
52361;BME280;38294;42.966;1.608;2022-11-20T15:45:00;97333.50;;;13.65;68.41
52361;BME280;38294;42.966;1.608;2022-11-20T15:47:31;97346.81;;;13.63;68.58
52361;BME280;38294;42.966;1.608;2022-11-20T15:49:57;97344.88;;;13.64;69.25
52361;BME280;38294;42.966;1.608;2022-11-20T15:52:23;97349.66;;;13.71;69.90
52361;BME280;38294;42.966;1.608;2022-11-20T15:54:48;97352.38;;;13.34;71.28
52361;BME280;38294;42.966;1.608;2022-11-20T15:57:14;97366.88;;;13.31;71.67
52361;BME280;38294;42.966;1.608;2022-11-20T15:59:40;97356.84;;;13.79;69.85
52361;BME280;38294;42.966;1.608;2022-11-20T16:02:13;97364.88;;;13.61;70.31
52361;BME280;38294;42.966;1.608;2022-11-20T16:04:39;97363.09;;;13.42;69.80
52361;BME280;38294;42.966;1.608;2022-11-20T16:07:05;97359.16;;;13.40;70.05
52361;BME280;38294;42.966;1.608;2022-11-20T16:09:31;97348.63;;;13.49;68.80
52361;BME280;38294;42.966;1.608;2022-11-20T16:11:56;97355.06;;;13.60;66.75
52361;BME280;38294;42.966;1.608;2022-11-20T16:14:26;97355.91;;;14.01;66.32
52361;BME280;38294;42.966;1.608;2022-11-20T16:17:10;97358.88;;;13.52;67.63
52361;BME280;38294;42.966;1.608;2022-11-20T16:19:36;97353.75;;;13.84;65.38
52361;BME280;38294;42.966;1.608;2022-11-20T16:22:01;97361.78;;;13.62;65.02
52361;BME280;38294;42.966;1.608;2022-11-20T16:24:27;97356.00;;;13.75;63.25
52361;BME280;38294;42.966;1.608;2022-11-20T16:26:54;97368.53;;;13.68;63.50
52361;BME280;38294;42.966;1.608;2022-11-20T16:29:19;97367.59;;;13.91;62.99
52361;BME280;38294;42.966;1.608;2022-11-20T16:31:45;97358.69;;;14.04;61.14
52361;BME280;38294;42.966;1.608;2022-11-20T16:34:11;97362.13;;;13.94;62.52
52361;BME280;38294;42.966;1.608;2022-11-20T16:36:39;97377.69;;;13.80;62.54
52361;BME280;38294;42.966;1.608;2022-11-20T16:39:05;97378.84;;;13.45;60.74
52361;BME280;38294;42.966;1.608;2022-11-20T16:41:32;97398.41;;;13.66;61.68
52361;BME280;38294;42.966;1.608;2022-11-20T16:44:05;97392.63;;;13.45;61.28
52361;BME280;38294;42.966;1.608;2022-11-20T16:46:31;97392.38;;;13.91;60.36
52361;BME280;38294;42.966;1.608;2022-11-20T16:48:59;97397.16;;;13.64;61.35
52361;BME280;38294;42.966;1.608;2022-11-20T16:51:26;97416.81;;;13.33;61.38
52361;BME280;38294;42.966;1.608;2022-11-20T16:53:52;97415.88;;;12.95;61.63
52361;BME280;38294;42.966;1.608;2022-11-20T16:56:22;97423.53;;;13.09;63.27
52361;BME280;38294;42.966;1.608;2022-11-20T16:58:49;97437.28;;;13.09;63.10
52361;BME280;38294;42.966;1.608;2022-11-20T17:01:19;97435.81;;;12.89;64.79
52361;BME280;38294;42.966;1.608;2022-11-20T17:06:23;97428.00;;;13.17;63.81
52361;BME280;38294;42.966;1.608;2022-11-20T17:08:48;97431.72;;;13.05;63.72
52361;BME280;38294;42.966;1.608;2022-11-20T17:11:16;97434.03;;;13.26;63.95
52361;BME280;38294;42.966;1.608;2022-11-20T17:13:43;97443.63;;;13.39;63.51
52361;BME280;38294;42.966;1.608;2022-11-20T17:16:11;97447.25;;;13.17;64.69
52361;BME280;38294;42.966;1.608;2022-11-20T17:18:38;97441.81;;;13.21;64.26
52361;BME280;38294;42.966;1.608;2022-11-20T17:21:04;97440.91;;;13.13;65.46
52361;BME280;38294;42.966;1.608;2022-11-20T17:23:58;97448.63;;;13.30;64.59
52361;BME280;38294;42.966;1.608;2022-11-20T17:26:24;97447.50;;;13.35;65.22
52361;BME280;38294;42.966;1.608;2022-11-20T17:29:11;97459.94;;;13.02;66.63
52361;BME280;38294;42.966;1.608;2022-11-20T17:31:37;97448.13;;;12.98;67.70
52361;BME280;38294;42.966;1.608;2022-11-20T17:34:06;97461.00;;;13.17;68.41
52361;BME280;38294;42.966;1.608;2022-11-20T17:36:32;97473.13;;;12.67;71.42
52361;BME280;38294;42.966;1.608;2022-11-20T17:38:58;97453.72;;;12.79;72.96
52361;BME280;38294;42.966;1.608;2022-11-20T17:41:26;97468.72;;;12.40;75.35
52361;BME280;38294;42.966;1.608;2022-11-20T17:43:54;97469.22;;;12.45;76.06
52361;BME280;38294;42.966;1.608;2022-11-20T17:46:21;97473.38;;;12.17;77.70
52361;BME280;38294;42.966;1.608;2022-11-20T17:48:48;97476.44;;;12.76;76.33
52361;BME280;38294;42.966;1.608;2022-11-20T17:51:16;97478.81;;;12.78;74.75
52361;BME280;38294;42.966;1.608;2022-11-20T17:53:44;97481.69;;;12.62;76.28
52361;BME280;38294;42.966;1.608;2022-11-20T17:56:10;97473.25;;;12.74;74.99
52361;BME280;38294;42.966;1.608;2022-11-20T17:58:54;97488.78;;;12.63;76.56
52361;BME280;38294;42.966;1.608;2022-11-20T18:01:20;97487.97;;;12.62;77.04
52361;BME280;38294;42.966;1.608;2022-11-20T18:03:46;97496.34;;;12.70;77.66
52361;BME280;38294;42.966;1.608;2022-11-20T18:06:20;97485.97;;;12.82;76.80
52361;BME280;38294;42.966;1.608;2022-11-20T18:08:46;97491.03;;;11.96;81.95
52361;BME280;38294;42.966;1.608;2022-11-20T18:11:16;97491.75;;;12.13;82.28
52361;BME280;38294;42.966;1.608;2022-11-20T18:13:43;97493.16;;;12.68;78.83
52361;BME280;38294;42.966;1.608;2022-11-20T18:16:29;97504.09;;;12.03;82.59
52361;BME280;38294;42.966;1.608;2022-11-20T18:18:56;97502.03;;;12.38;80.78
52361;BME280;38294;42.966;1.608;2022-11-20T18:21:23;97504.34;;;12.55;81.59